createdAt,value
2017-05-06T00:00:14.964Z,0
2017-05-06T00:00:55.427Z,0
2017-05-06T00:01:35.883Z,0
2017-05-06T00:02:16.348Z,0
2017-05-06T00:02:56.797Z,0
2017-05-06T00:03:37.252Z,0
2017-05-06T00:04:17.765Z,0
2017-05-06T00:04:58.213Z,0
2017-05-06T00:05:38.662Z,0
2017-05-06T00:06:19.136Z,0
2017-05-06T00:06:59.588Z,0
2017-05-06T00:07:40.062Z,0
2017-05-06T00:08:20.504Z,0
2017-05-06T00:09:00.969Z,0
2017-05-06T00:09:41.420Z,0
2017-05-06T00:10:21.850Z,0
2017-05-06T00:11:02.321Z,0
2017-05-06T00:11:42.770Z,0
2017-05-06T00:12:23.214Z,0
2017-05-06T00:13:03.706Z,0
2017-05-06T00:13:44.117Z,0
2017-05-06T00:14:24.532Z,0
2017-05-06T00:15:04.989Z,0
2017-05-06T00:15:45.447Z,0
2017-05-06T00:18:23.536Z,0
2017-05-06T00:19:04.014Z,0
2017-05-06T00:19:44.487Z,0
2017-05-06T00:20:24.973Z,0
2017-05-06T00:21:05.460Z,0
2017-05-06T00:21:45.952Z,0
2017-05-06T00:22:26.453Z,0
2017-05-06T00:23:06.919Z,0
2017-05-06T00:23:47.431Z,0
2017-05-06T00:24:27.925Z,0
2017-05-06T00:25:08.401Z,0
2017-05-06T00:25:48.896Z,0
2017-05-06T00:26:29.377Z,0
2017-05-06T00:27:09.858Z,0
2017-05-06T00:27:50.347Z,0
2017-05-06T00:28:30.937Z,0
2017-05-06T00:29:11.425Z,0
2017-05-06T00:29:51.942Z,0
2017-05-06T00:30:32.418Z,0
2017-05-06T00:31:12.906Z,0
2017-05-06T00:31:53.415Z,0
2017-05-06T00:32:33.842Z,0
2017-05-06T00:33:14.285Z,0
2017-05-06T00:33:54.738Z,0
2017-05-06T00:34:35.205Z,0
2017-05-06T00:35:15.708Z,0
2017-05-06T00:35:56.181Z,0
2017-05-06T00:36:36.634Z,0
2017-05-06T00:37:17.765Z,0
2017-05-06T00:37:58.216Z,0
2017-05-06T00:38:38.677Z,0
2017-05-06T00:39:19.153Z,0
2017-05-06T00:39:59.596Z,0
2017-05-06T00:40:40.047Z,0
2017-05-06T00:41:20.496Z,0
2017-05-06T00:42:00.963Z,0
2017-05-06T00:42:41.422Z,0
2017-05-06T00:43:21.865Z,0
2017-05-06T00:45:59.965Z,0
2017-05-06T00:46:40.462Z,0
2017-05-06T00:47:20.943Z,0
2017-05-06T00:48:01.446Z,0
2017-05-06T00:48:41.931Z,0
2017-05-06T00:49:22.424Z,0
2017-05-06T00:50:03.504Z,0
2017-05-06T00:50:43.995Z,0
2017-05-06T00:51:24.463Z,0
2017-05-06T00:52:04.943Z,0
2017-05-06T00:52:45.425Z,0
2017-05-06T00:53:25.925Z,0
2017-05-06T00:54:06.427Z,0
2017-05-06T00:54:46.807Z,0
2017-05-06T00:55:27.258Z,0
2017-05-06T00:56:07.719Z,0
2017-05-06T00:56:48.165Z,0
2017-05-06T00:57:28.627Z,0
2017-05-06T00:58:09.070Z,0
2017-05-06T00:58:49.507Z,0
2017-05-06T00:59:30.061Z,0
2017-05-06T01:00:10.521Z,0
2017-05-06T01:00:50.972Z,0
2017-05-06T01:01:31.431Z,0
2017-05-06T01:02:11.891Z,0
2017-05-06T01:02:52.345Z,0
2017-05-06T01:03:32.814Z,0
2017-05-06T01:04:13.276Z,0
2017-05-06T01:04:53.734Z,0
2017-05-06T01:05:34.186Z,0
2017-05-06T01:06:14.635Z,0
2017-05-06T01:06:55.091Z,0
2017-05-06T01:07:35.557Z,0
2017-05-06T01:08:15.988Z,0
2017-05-06T01:08:56.481Z,0
2017-05-06T01:09:36.942Z,0
2017-05-06T01:10:17.378Z,0
2017-05-06T01:10:57.839Z,0
2017-05-06T01:11:38.284Z,0
2017-05-06T01:12:18.750Z,0
2017-05-06T01:12:59.221Z,0
2017-05-06T01:13:39.678Z,0
2017-05-06T01:14:20.107Z,0
2017-05-06T01:15:00.595Z,0
2017-05-06T01:15:41.030Z,0
2017-05-06T01:16:21.501Z,0
2017-05-06T01:17:01.935Z,0
2017-05-06T01:17:42.380Z,0
2017-05-06T01:18:22.830Z,0
2017-05-06T01:19:03.291Z,0
2017-05-06T01:19:43.736Z,0
2017-05-06T01:20:24.207Z,0
2017-05-06T01:21:04.676Z,0
2017-05-06T01:21:45.091Z,0
2017-05-06T01:22:25.538Z,0
2017-05-06T01:23:06.016Z,0
2017-05-06T01:23:46.450Z,0
2017-05-06T01:24:26.873Z,0
2017-05-06T01:25:07.303Z,0
2017-05-06T01:25:47.769Z,0
2017-05-06T01:26:28.228Z,0
2017-05-06T01:27:08.674Z,0
2017-05-06T01:27:49.137Z,0
2017-05-06T01:28:29.593Z,0
2017-05-06T01:29:10.011Z,0
2017-05-06T01:29:50.474Z,0
2017-05-06T01:30:30.929Z,0
2017-05-06T01:31:11.397Z,0
2017-05-06T01:31:51.837Z,0
2017-05-06T01:32:32.309Z,0
2017-05-06T01:33:12.760Z,0
2017-05-06T01:33:53.212Z,0
2017-05-06T01:34:33.744Z,0
2017-05-06T01:35:14.203Z,0
2017-05-06T01:35:54.641Z,0
2017-05-06T01:36:35.723Z,0
2017-05-06T01:37:16.176Z,0
2017-05-06T01:37:56.630Z,0
2017-05-06T01:38:37.670Z,0
2017-05-06T01:39:18.115Z,0
2017-05-06T01:39:58.591Z,0
2017-05-06T01:42:16.425Z,0
2017-05-06T01:42:56.883Z,0
2017-05-06T01:43:37.412Z,0
2017-05-06T01:44:17.893Z,0
2017-05-06T01:44:58.375Z,0
2017-05-06T01:45:38.832Z,0
2017-05-06T01:46:19.288Z,0
2017-05-06T01:46:59.756Z,0
2017-05-06T01:47:40.213Z,0
2017-05-06T01:49:52.946Z,0
2017-05-06T01:50:33.410Z,0
2017-05-06T01:51:13.880Z,0
2017-05-06T01:51:54.361Z,0
2017-05-06T01:52:34.867Z,0
2017-05-06T01:53:15.326Z,0
2017-05-06T01:53:55.749Z,0
2017-05-06T01:54:36.195Z,0
2017-05-06T01:55:16.657Z,0
2017-05-06T01:55:57.109Z,0
2017-05-06T01:56:37.663Z,0
2017-05-06T01:57:18.122Z,0
2017-05-06T01:57:59.134Z,0
2017-05-06T01:58:39.613Z,0
2017-05-06T01:59:20.148Z,0
2017-05-06T02:00:00.505Z,0
2017-05-06T02:00:41.709Z,0
2017-05-06T02:01:22.164Z,0
2017-05-06T02:02:02.621Z,0
2017-05-06T02:02:43.083Z,0
2017-05-06T02:03:23.566Z,0
2017-05-06T02:04:04.077Z,0
2017-05-06T02:04:44.557Z,0
2017-05-06T02:05:24.990Z,0
2017-05-06T02:06:05.474Z,0
2017-05-06T02:06:45.932Z,0
2017-05-06T02:07:26.409Z,0
2017-05-06T02:08:06.857Z,0
2017-05-06T02:08:47.311Z,0
2017-05-06T02:09:27.773Z,0
2017-05-06T02:10:08.204Z,0
2017-05-06T02:10:48.680Z,0
2017-05-06T02:11:29.135Z,0
2017-05-06T02:12:09.600Z,0
2017-05-06T02:12:50.059Z,0
2017-05-06T02:15:23.054Z,0
2017-05-06T02:16:03.593Z,0
2017-05-06T02:16:44.076Z,0
2017-05-06T02:17:24.808Z,0
2017-05-06T02:18:05.313Z,0
2017-05-06T02:18:45.775Z,0
2017-05-06T02:19:26.284Z,0
2017-05-06T02:20:06.740Z,0
2017-05-06T02:20:47.273Z,0
2017-05-06T02:21:27.722Z,0
2017-05-06T02:22:08.215Z,0
2017-05-06T02:22:48.687Z,0
2017-05-06T02:23:29.181Z,0
2017-05-06T02:24:09.648Z,0
2017-05-06T02:24:50.130Z,0
2017-05-06T02:25:30.592Z,0
2017-05-06T02:26:11.073Z,0
2017-05-06T02:26:51.564Z,0
2017-05-06T02:27:32.049Z,0
2017-05-06T02:28:12.510Z,0
2017-05-06T02:28:52.978Z,0
2017-05-06T02:29:33.420Z,0
2017-05-06T02:30:13.878Z,0
2017-05-06T02:30:54.331Z,0
2017-05-06T02:31:34.782Z,0
2017-05-06T02:32:15.225Z,0
2017-05-06T02:32:55.709Z,0
2017-05-06T02:33:36.164Z,0
2017-05-06T02:34:16.629Z,0
2017-05-06T02:34:57.088Z,0
2017-05-06T02:35:37.558Z,0
2017-05-06T02:36:18.045Z,0
2017-05-06T02:36:58.528Z,0
2017-05-06T02:37:38.956Z,0
2017-05-06T02:38:19.389Z,0
2017-05-06T02:38:59.826Z,0
2017-05-06T02:39:40.261Z,0
2017-05-06T02:42:13.285Z,0
2017-05-06T02:42:53.765Z,0
2017-05-06T02:43:34.229Z,0
2017-05-06T02:44:14.711Z,0
2017-05-06T02:46:52.751Z,0
2017-05-06T02:47:33.230Z,0
2017-05-06T02:48:13.714Z,0
2017-05-06T02:48:54.234Z,0
2017-05-06T02:49:34.685Z,0
2017-05-06T02:50:15.142Z,0
2017-05-06T02:50:55.626Z,0
2017-05-06T02:51:36.114Z,0
2017-05-06T02:52:16.602Z,0
2017-05-06T02:52:57.056Z,0
2017-05-06T02:53:37.514Z,0
2017-05-06T02:54:17.973Z,0
2017-05-06T02:54:58.403Z,0
2017-05-06T02:55:38.847Z,0
2017-05-06T02:56:19.299Z,0
2017-05-06T02:56:59.705Z,0
2017-05-06T02:59:37.795Z,0
2017-05-06T03:00:18.319Z,0
2017-05-06T03:00:58.789Z,0
2017-05-06T03:01:39.291Z,0
2017-05-06T03:02:19.803Z,0
2017-05-06T03:03:00.308Z,0
2017-05-06T03:03:40.796Z,0
2017-05-06T03:04:21.359Z,0
2017-05-06T03:05:01.864Z,0
2017-05-06T03:05:42.330Z,0
2017-05-06T03:06:22.832Z,0
2017-05-06T03:07:03.278Z,0
2017-05-06T03:07:43.792Z,0
2017-05-06T03:08:24.316Z,0
2017-05-06T03:09:04.817Z,0
2017-05-06T03:09:45.239Z,0
2017-05-06T03:10:25.677Z,0
2017-05-06T03:11:06.129Z,0
2017-05-06T03:11:46.634Z,0
2017-05-06T03:12:27.087Z,0
2017-05-06T03:13:07.542Z,0
2017-05-06T03:13:48.014Z,0
2017-05-06T03:16:05.818Z,0
2017-05-06T03:16:46.284Z,0
2017-05-06T03:17:27.048Z,0
2017-05-06T03:18:07.499Z,0
2017-05-06T03:18:47.990Z,0
2017-05-06T03:19:28.462Z,0
2017-05-06T03:20:08.930Z,0
2017-05-06T03:20:49.359Z,0
2017-05-06T03:21:30.841Z,0
2017-05-06T03:22:11.298Z,0
2017-05-06T03:22:51.761Z,0
2017-05-06T03:23:32.227Z,0
2017-05-06T03:24:12.641Z,0
2017-05-06T03:24:53.099Z,0
2017-05-06T03:25:33.593Z,0
2017-05-06T03:26:14.073Z,0
2017-05-06T03:26:54.479Z,0
2017-05-06T03:27:34.957Z,0
2017-05-06T03:28:15.385Z,0
2017-05-06T03:28:55.852Z,0
2017-05-06T03:29:36.342Z,0
2017-05-06T03:32:14.431Z,0
2017-05-06T03:34:27.229Z,0
2017-05-06T03:35:07.714Z,0
2017-05-06T03:35:48.198Z,0
2017-05-06T03:36:28.679Z,0
2017-05-06T03:37:09.163Z,0
2017-05-06T03:37:49.644Z,0
2017-05-06T03:38:30.070Z,0
2017-05-06T03:39:10.536Z,0
2017-05-06T03:39:51.010Z,0
2017-05-06T03:40:31.470Z,0
2017-05-06T03:41:11.911Z,0
2017-05-06T03:41:52.364Z,0
2017-05-06T03:42:32.809Z,0
2017-05-06T03:43:13.281Z,0
2017-05-06T03:45:51.355Z,0
2017-05-06T03:46:31.812Z,0
2017-05-06T03:47:12.270Z,0
2017-05-06T03:47:52.707Z,0
2017-05-06T03:48:33.191Z,0
2017-05-06T03:49:13.664Z,0
2017-05-06T03:49:54.773Z,0
2017-05-06T03:50:35.252Z,0
2017-05-06T03:51:15.726Z,0
2017-05-06T03:51:56.170Z,0
2017-05-06T03:52:36.631Z,0
2017-05-06T03:53:17.075Z,5
2017-05-06T03:53:57.524Z,5
2017-05-06T03:54:37.951Z,5
2017-05-06T03:57:05.876Z,5
2017-05-06T03:57:46.885Z,5
2017-05-06T03:58:27.453Z,5
2017-05-06T03:59:07.909Z,5
2017-05-06T03:59:48.341Z,5
2017-05-06T04:00:28.789Z,5
2017-05-06T04:01:09.230Z,5
2017-05-06T04:03:47.334Z,10
2017-05-06T04:04:27.807Z,10
2017-05-06T04:05:08.305Z,10
2017-05-06T04:05:48.786Z,10
2017-05-06T04:06:29.269Z,10
2017-05-06T04:07:09.728Z,10
2017-05-06T04:07:50.199Z,15
2017-05-06T04:08:30.631Z,15
2017-05-06T04:09:11.098Z,15
2017-05-06T04:09:51.557Z,15
2017-05-06T04:10:32.015Z,15
2017-05-06T04:11:12.474Z,15
2017-05-06T04:11:52.939Z,15
2017-05-06T04:14:31.026Z,20
2017-05-06T04:15:11.497Z,20
2017-05-06T04:15:51.953Z,20
2017-05-06T04:16:32.651Z,20
2017-05-06T04:17:13.120Z,20
2017-05-06T04:17:53.569Z,20
2017-05-06T04:18:34.043Z,25
2017-05-06T04:19:15.042Z,25
2017-05-06T04:19:55.509Z,25
2017-05-06T04:20:35.992Z,25
2017-05-06T04:21:16.437Z,25
2017-05-06T04:21:56.993Z,25
2017-05-06T04:22:37.496Z,25
2017-05-06T04:23:17.949Z,30
2017-05-06T04:23:58.449Z,30
2017-05-06T04:24:38.949Z,30
2017-05-06T04:25:19.391Z,30
2017-05-06T04:25:59.918Z,30
2017-05-06T04:26:40.373Z,30
2017-05-06T04:27:20.857Z,35
2017-05-06T04:28:01.314Z,35
2017-05-06T04:28:41.778Z,35
2017-05-06T04:29:22.255Z,35
2017-05-06T04:30:03.307Z,35
2017-05-06T04:30:43.786Z,35
2017-05-06T04:31:24.243Z,35
2017-05-06T04:34:02.305Z,40
2017-05-06T04:34:43.319Z,40
2017-05-06T04:35:23.832Z,40
2017-05-06T04:36:04.291Z,40
2017-05-06T04:36:44.742Z,45
2017-05-06T04:37:25.172Z,45
2017-05-06T04:38:05.663Z,45
2017-05-06T04:38:46.161Z,45
2017-05-06T04:39:26.639Z,45
2017-05-06T04:40:07.144Z,45
2017-05-06T04:40:47.564Z,50
2017-05-06T04:41:28.024Z,50
2017-05-06T04:42:08.497Z,50
2017-05-06T04:42:48.972Z,50
2017-05-06T04:43:29.396Z,50
2017-05-06T04:44:09.854Z,50
2017-05-06T04:44:50.318Z,50
2017-05-06T04:45:30.777Z,50
2017-05-06T04:46:11.222Z,55
2017-05-06T04:46:51.695Z,55
2017-05-06T04:47:32.166Z,55
2017-05-06T04:48:12.635Z,55
2017-05-06T04:48:53.099Z,55
2017-05-06T04:49:33.570Z,55
2017-05-06T04:50:14.072Z,60
2017-05-06T04:50:54.534Z,60
2017-05-06T04:53:32.622Z,60
2017-05-06T04:56:00.536Z,65
2017-05-06T04:56:41.076Z,65
2017-05-06T04:57:21.541Z,65
2017-05-06T04:58:02.019Z,65
2017-05-06T04:58:43.685Z,65
2017-05-06T04:59:24.518Z,70
2017-05-06T05:00:05.014Z,70
2017-05-06T05:00:45.426Z,70
2017-05-06T05:01:25.907Z,70
2017-05-06T05:02:06.390Z,70
2017-05-06T05:02:46.816Z,75
2017-05-06T05:03:27.303Z,75
2017-05-06T05:04:07.751Z,75
2017-05-06T05:04:48.213Z,75
2017-05-06T05:05:28.682Z,75
2017-05-06T05:06:09.136Z,75
2017-05-06T05:06:49.654Z,80
2017-05-06T05:07:30.116Z,80
2017-05-06T05:08:10.578Z,80
2017-05-06T05:08:51.062Z,80
2017-05-06T05:09:31.497Z,80
2017-05-06T05:10:12.014Z,80
2017-05-06T05:10:52.410Z,85
2017-05-06T05:11:32.871Z,100
2017-05-06T05:12:13.348Z,110
2017-05-06T05:12:53.818Z,115
2017-05-06T05:13:34.303Z,115
2017-05-06T05:14:14.792Z,115
2017-05-06T05:14:55.258Z,115
2017-05-06T05:15:35.778Z,120
2017-05-06T05:16:17.138Z,125
2017-05-06T05:16:57.594Z,120
2017-05-06T05:17:38.156Z,110
2017-05-06T05:18:18.607Z,110
2017-05-06T05:18:59.008Z,125
2017-05-06T05:19:39.510Z,130
2017-05-06T05:20:19.957Z,135
2017-05-06T05:21:00.446Z,140
2017-05-06T05:21:40.936Z,140
2017-05-06T05:22:21.399Z,140
2017-05-06T05:23:01.878Z,140
2017-05-06T05:23:42.342Z,145
2017-05-06T05:24:22.784Z,145
2017-05-06T05:25:03.235Z,145
2017-05-06T05:25:43.768Z,145
2017-05-06T05:26:24.245Z,145
2017-05-06T05:27:04.790Z,145
2017-05-06T05:27:45.247Z,150
2017-05-06T05:28:25.692Z,150
2017-05-06T05:29:06.133Z,150
2017-05-06T05:29:46.591Z,150
2017-05-06T05:30:27.014Z,155
2017-05-06T05:31:07.468Z,155
2017-05-06T05:31:47.932Z,155
2017-05-06T05:32:28.409Z,160
2017-05-06T05:33:08.918Z,160
2017-05-06T05:33:49.351Z,160
2017-05-06T05:34:29.812Z,165
2017-05-06T05:35:10.217Z,165
2017-05-06T05:35:50.716Z,165
2017-05-06T05:36:31.149Z,165
2017-05-06T05:37:11.609Z,170
2017-05-06T05:37:52.557Z,170
2017-05-06T05:38:33.022Z,170
2017-05-06T05:39:13.468Z,175
2017-05-06T05:39:53.941Z,175
2017-05-06T05:40:34.393Z,180
2017-05-06T05:41:14.867Z,180
2017-05-06T05:41:55.304Z,180
2017-05-06T05:42:35.781Z,185
2017-05-06T05:45:13.897Z,190
2017-05-06T05:45:54.413Z,190
2017-05-06T05:46:35.814Z,190
2017-05-06T05:47:16.302Z,190
2017-05-06T05:47:56.861Z,200
2017-05-06T05:48:37.381Z,195
2017-05-06T05:49:17.867Z,200
2017-05-06T05:49:58.354Z,205
2017-05-06T05:52:36.480Z,195
2017-05-06T05:53:16.963Z,230
2017-05-06T05:53:57.431Z,230
2017-05-06T05:56:30.422Z,235
2017-05-06T05:57:10.895Z,225
2017-05-06T05:57:52.350Z,230
2017-05-06T05:58:32.841Z,225
2017-05-06T05:59:13.337Z,250
2017-05-06T05:59:53.803Z,270
2017-05-06T06:00:34.302Z,275
2017-05-06T06:01:14.807Z,280
2017-05-06T06:01:55.276Z,280
2017-05-06T06:02:35.760Z,285
2017-05-06T06:03:16.245Z,290
2017-05-06T06:03:56.755Z,290
2017-05-06T06:04:37.196Z,285
2017-05-06T06:05:17.673Z,225
2017-05-06T06:05:58.166Z,265
2017-05-06T06:06:38.648Z,290
2017-05-06T06:07:19.126Z,290
2017-05-06T06:07:59.608Z,295
2017-05-06T06:08:40.082Z,295
2017-05-06T06:09:20.572Z,260
2017-05-06T06:10:01.046Z,255
2017-05-06T06:10:41.515Z,205
2017-05-06T06:11:22.018Z,265
2017-05-06T06:12:02.454Z,275
2017-05-06T06:12:43.849Z,245
2017-05-06T06:13:24.318Z,195
2017-05-06T06:14:04.814Z,245
2017-05-06T06:14:45.260Z,220
2017-05-06T06:15:25.726Z,220
2017-05-06T06:16:06.188Z,240
2017-05-06T06:16:46.642Z,270
2017-05-06T06:17:27.108Z,245
2017-05-06T06:18:07.613Z,265
2017-05-06T06:18:48.087Z,230
2017-05-06T06:19:28.540Z,275
2017-05-06T06:20:09.006Z,285
2017-05-06T06:20:49.447Z,280
2017-05-06T06:21:29.892Z,305
2017-05-06T06:22:10.563Z,270
2017-05-06T06:22:51.031Z,230
2017-05-06T06:25:08.870Z,300
2017-05-06T06:25:49.335Z,330
2017-05-06T06:26:29.798Z,340
2017-05-06T06:27:10.268Z,345
2017-05-06T06:29:38.217Z,365
2017-05-06T06:30:19.152Z,355
2017-05-06T06:31:00.182Z,345
2017-05-06T06:31:41.420Z,370
2017-05-06T06:32:22.571Z,365
2017-05-06T06:33:03.270Z,375
2017-05-06T06:33:43.910Z,345
2017-05-06T06:34:25.174Z,345
2017-05-06T06:35:05.670Z,370
2017-05-06T06:35:46.219Z,330
2017-05-06T06:36:26.771Z,345
2017-05-06T06:37:07.248Z,340
2017-05-06T06:37:47.761Z,355
2017-05-06T06:38:28.253Z,315
2017-05-06T06:39:08.733Z,325
2017-05-06T06:39:49.192Z,305
2017-05-06T06:40:29.695Z,305
2017-05-06T06:41:10.157Z,340
2017-05-06T06:41:50.598Z,325
2017-05-06T06:42:31.078Z,335
2017-05-06T06:43:11.534Z,355
2017-05-06T06:43:51.980Z,370
2017-05-06T06:44:32.446Z,385
2017-05-06T06:45:12.883Z,320
2017-05-06T06:45:53.365Z,330
2017-05-06T06:46:33.819Z,350
2017-05-06T06:47:14.271Z,395
2017-05-06T06:47:54.783Z,335
2017-05-06T06:48:35.234Z,340
2017-05-06T06:49:15.688Z,400
2017-05-06T06:49:56.147Z,370
2017-05-06T06:50:36.625Z,400
2017-05-06T06:51:17.110Z,395
2017-05-06T06:51:57.570Z,475
2017-05-06T06:52:38.001Z,480
2017-05-06T06:53:18.441Z,570
2017-05-06T06:53:58.906Z,520
2017-05-06T06:54:39.344Z,405
2017-05-06T06:55:19.808Z,400
2017-05-06T06:56:00.336Z,360
2017-05-06T06:56:40.779Z,375
2017-05-06T06:57:21.239Z,380
2017-05-06T06:58:01.720Z,405
2017-05-06T06:58:42.188Z,425
2017-05-06T06:59:22.633Z,415
2017-05-06T07:00:03.076Z,515
2017-05-06T07:00:43.552Z,580
2017-05-06T07:01:24.010Z,500
2017-05-06T07:02:04.466Z,590
2017-05-06T07:02:44.912Z,610
2017-05-06T07:03:25.368Z,660
2017-05-06T07:04:06.393Z,725
2017-05-06T07:04:47.254Z,700
2017-05-06T07:05:27.703Z,715
2017-05-06T07:06:08.156Z,720
2017-05-06T07:08:20.920Z,730
2017-05-06T07:09:01.434Z,695
2017-05-06T07:09:41.902Z,735
2017-05-06T07:10:22.386Z,735
2017-05-06T07:11:02.898Z,730
2017-05-06T07:11:43.350Z,615
2017-05-06T07:12:23.853Z,590
2017-05-06T07:13:04.308Z,705
2017-05-06T07:13:44.741Z,595
2017-05-06T07:14:25.201Z,490
2017-05-06T07:15:05.658Z,505
2017-05-06T07:15:46.125Z,490
2017-05-06T07:16:26.587Z,425
2017-05-06T07:17:07.034Z,445
2017-05-06T07:17:47.440Z,460
2017-05-06T07:20:15.390Z,390
2017-05-06T07:20:55.848Z,390
2017-05-06T07:21:36.402Z,395
2017-05-06T07:22:16.878Z,390
2017-05-06T07:22:57.347Z,395
2017-05-06T07:23:37.798Z,380
2017-05-06T07:24:18.309Z,400
2017-05-06T07:24:58.748Z,400
2017-05-06T07:25:39.260Z,405
2017-05-06T07:26:19.742Z,405
2017-05-06T07:27:00.183Z,420
2017-05-06T07:29:38.560Z,745
2017-05-06T07:30:18.883Z,840
2017-05-06T07:30:59.304Z,890
2017-05-06T07:31:39.781Z,830
2017-05-06T07:32:20.215Z,850
2017-05-06T07:33:00.657Z,920
2017-05-06T07:33:41.107Z,1080
2017-05-06T07:34:21.621Z,1045
2017-05-06T07:35:02.138Z,970
2017-05-06T07:35:42.660Z,880
2017-05-06T07:38:21.203Z,1125
2017-05-06T07:39:01.351Z,1320
2017-05-06T07:41:39.403Z,1265
2017-05-06T07:42:19.859Z,1210
2017-05-06T07:43:00.262Z,1240
2017-05-06T07:45:33.272Z,1035
2017-05-06T07:46:13.782Z,845
2017-05-06T07:46:54.260Z,835
2017-05-06T07:47:34.725Z,745
2017-05-06T07:48:15.207Z,680
2017-05-06T07:48:55.685Z,610
2017-05-06T07:49:36.181Z,555
2017-05-06T07:50:16.835Z,505
2017-05-06T07:50:57.140Z,530
2017-05-06T07:51:37.602Z,530
2017-05-06T07:52:19.058Z,520
2017-05-06T07:52:59.503Z,500
2017-05-06T07:53:39.976Z,500
2017-05-06T07:54:20.431Z,505
2017-05-06T07:55:00.886Z,505
2017-05-06T07:55:41.339Z,505
2017-05-06T07:56:21.801Z,505
2017-05-06T07:58:39.611Z,1345
2017-05-06T07:59:20.108Z,1930
2017-05-06T08:00:00.594Z,2215
2017-05-06T08:00:41.044Z,2055
2017-05-06T08:01:21.599Z,1920
2017-05-06T08:02:02.064Z,1520
2017-05-06T08:02:42.551Z,2065
2017-05-06T08:03:23.060Z,2080
2017-05-06T08:06:01.205Z,1780
2017-05-06T08:06:41.679Z,1750
2017-05-06T08:07:22.234Z,1710
2017-05-06T08:08:02.707Z,1745
2017-05-06T08:08:43.171Z,1735
2017-05-06T08:09:23.671Z,1920
2017-05-06T08:10:04.164Z,1755
2017-05-06T08:10:44.637Z,1740
2017-05-06T08:13:02.693Z,1695
2017-05-06T08:13:43.147Z,1200
2017-05-06T08:14:23.616Z,1170
2017-05-06T08:15:04.081Z,1060
2017-05-06T08:15:44.521Z,1060
2017-05-06T08:16:24.996Z,1265
2017-05-06T08:17:05.444Z,1240
2017-05-06T08:17:46.040Z,1135
2017-05-06T08:18:26.514Z,1205
2017-05-06T08:19:06.985Z,1295
2017-05-06T08:19:47.435Z,1695
2017-05-06T08:20:27.930Z,1280
2017-05-06T08:21:08.352Z,1345
2017-05-06T08:21:48.810Z,1735
2017-05-06T08:22:29.278Z,1665
2017-05-06T08:23:09.722Z,1410
2017-05-06T08:23:50.182Z,1360
2017-05-06T08:24:30.671Z,1500
2017-05-06T08:25:11.128Z,1465
2017-05-06T08:25:51.615Z,1445
2017-05-06T08:26:32.065Z,1455
2017-05-06T08:27:12.562Z,1725
2017-05-06T08:27:52.986Z,1840
2017-05-06T08:28:33.447Z,1360
2017-05-06T08:29:13.902Z,1340
2017-05-06T08:29:54.368Z,1595
2017-05-06T08:30:34.805Z,1530
2017-05-06T08:31:15.322Z,1660
2017-05-06T08:31:55.778Z,1795
2017-05-06T08:32:36.281Z,1855
2017-05-06T08:33:16.742Z,2065
2017-05-06T08:33:57.193Z,2160
2017-05-06T08:34:37.643Z,2245
2017-05-06T08:35:18.081Z,2340
2017-05-06T08:35:58.540Z,2365
2017-05-06T08:36:38.998Z,2450
2017-05-06T08:37:19.455Z,2035
2017-05-06T08:37:59.953Z,2200
2017-05-06T08:38:40.401Z,2020
2017-05-06T08:39:20.835Z,1770
2017-05-06T08:40:01.334Z,1615
2017-05-06T08:40:41.744Z,1940
2017-05-06T08:41:22.175Z,1915
2017-05-06T08:42:02.686Z,1800
2017-05-06T08:42:43.140Z,1925
2017-05-06T08:43:23.584Z,2065
2017-05-06T08:44:04.057Z,1755
2017-05-06T08:44:44.533Z,1725
2017-05-06T08:45:25.001Z,1595
2017-05-06T08:46:05.406Z,1835
2017-05-06T08:46:46.786Z,1880
2017-05-06T08:47:27.233Z,1830
2017-05-06T08:48:08.310Z,1550
2017-05-06T08:48:48.780Z,960
2017-05-06T08:49:29.260Z,855
2017-05-06T08:50:10.597Z,850
2017-05-06T08:50:51.076Z,855
2017-05-06T08:51:31.551Z,845
2017-05-06T08:52:12.020Z,830
2017-05-06T08:52:52.450Z,840
2017-05-06T08:53:32.941Z,890
2017-05-06T08:54:13.356Z,870
2017-05-06T08:54:53.814Z,920
2017-05-06T08:55:34.334Z,925
2017-05-06T08:56:14.781Z,910
2017-05-06T08:56:56.003Z,810
2017-05-06T08:57:36.487Z,795
2017-05-06T08:58:17.511Z,875
2017-05-06T08:58:58.025Z,815
2017-05-06T08:59:38.517Z,1235
2017-05-06T09:00:18.956Z,650
2017-05-06T09:04:34.473Z,845
2017-05-06T09:05:14.967Z,995
2017-05-06T09:05:55.468Z,1020
2017-05-06T09:06:35.982Z,1170
2017-05-06T09:07:16.431Z,1460
2017-05-06T09:07:56.908Z,1320
2017-05-06T09:08:37.447Z,1320
2017-05-06T09:09:17.933Z,1105
2017-05-06T09:09:58.420Z,1060
2017-05-06T09:10:38.903Z,1055
2017-05-06T09:11:19.380Z,1100
2017-05-06T09:11:59.851Z,1030
2017-05-06T09:12:40.276Z,1015
2017-05-06T09:13:20.739Z,1100
2017-05-06T09:14:01.222Z,1060
2017-05-06T09:14:41.684Z,1165
2017-05-06T09:15:22.158Z,1170
2017-05-06T09:16:02.629Z,1355
2017-05-06T09:16:43.123Z,1255
2017-05-06T09:17:23.627Z,1405
2017-05-06T09:18:04.078Z,1790
2017-05-06T09:18:44.518Z,1330
2017-05-06T09:19:24.965Z,1955
2017-05-06T09:20:05.404Z,2690
2017-05-06T09:20:45.909Z,2955
2017-05-06T09:21:26.375Z,2730
2017-05-06T09:22:06.853Z,1865
2017-05-06T09:24:45.240Z,2470
2017-05-06T09:25:25.754Z,2110
2017-05-06T09:26:06.213Z,1330
2017-05-06T09:26:46.696Z,925
2017-05-06T09:27:27.186Z,975
2017-05-06T09:30:00.376Z,770
2017-05-06T09:30:41.538Z,790
2017-05-06T09:31:22.056Z,830
2017-05-06T09:32:02.552Z,815
2017-05-06T09:32:43.071Z,865
2017-05-06T09:33:23.538Z,845
2017-05-06T09:34:04.546Z,925
2017-05-06T09:34:45.046Z,900
2017-05-06T09:35:25.569Z,1005
2017-05-06T09:36:06.038Z,1015
2017-05-06T09:36:46.503Z,870
2017-05-06T09:37:26.969Z,1250
2017-05-06T09:38:07.438Z,1440
2017-05-06T09:38:47.956Z,1210
2017-05-06T09:39:29.403Z,1045
2017-05-06T09:40:09.835Z,1075
2017-05-06T09:40:50.292Z,1305
2017-05-06T09:41:30.751Z,1230
2017-05-06T09:42:11.214Z,1810
2017-05-06T09:42:51.683Z,1590
2017-05-06T09:43:32.166Z,1310
2017-05-06T09:44:12.601Z,1420
2017-05-06T09:44:53.086Z,840
2017-05-06T09:45:33.534Z,1130
2017-05-06T09:46:14.021Z,855
2017-05-06T09:46:54.462Z,775
2017-05-06T09:47:34.917Z,945
2017-05-06T09:48:15.388Z,1335
2017-05-06T09:48:55.830Z,1480
2017-05-06T09:49:36.286Z,1500
2017-05-06T09:50:16.769Z,1185
2017-05-06T09:50:57.241Z,880
2017-05-06T09:51:37.795Z,790
2017-05-06T09:52:18.198Z,805
2017-05-06T09:52:58.674Z,725
2017-05-06T09:53:39.135Z,810
2017-05-06T09:54:19.553Z,670
2017-05-06T09:55:00.009Z,745
2017-05-06T09:55:40.455Z,860
2017-05-06T09:56:20.931Z,1260
2017-05-06T09:57:01.382Z,1440
2017-05-06T09:57:41.863Z,1230
2017-05-06T09:58:22.364Z,2000
2017-05-06T09:59:02.830Z,2770
2017-05-06T09:59:43.259Z,2960
2017-05-06T10:00:23.731Z,3090
2017-05-06T10:01:04.268Z,3195
2017-05-06T10:01:44.858Z,2995
2017-05-06T10:02:25.313Z,2220
2017-05-06T10:03:05.801Z,2040
2017-05-06T10:03:46.241Z,1865
2017-05-06T10:04:26.729Z,1825
2017-05-06T10:05:07.186Z,1505
2017-05-06T10:05:47.645Z,2050
2017-05-06T10:06:28.128Z,2240
2017-05-06T10:07:09.437Z,2325
2017-05-06T10:07:49.894Z,2470
2017-05-06T10:08:30.335Z,2155
2017-05-06T10:09:10.780Z,2645
2017-05-06T10:09:51.252Z,1750
2017-05-06T10:10:31.709Z,2060
2017-05-06T10:11:12.165Z,2060
2017-05-06T10:11:52.648Z,1965
2017-05-06T10:12:33.110Z,1835
2017-05-06T10:13:13.552Z,1225
2017-05-06T10:13:54.026Z,1130
2017-05-06T10:14:34.497Z,1050
2017-05-06T10:15:14.973Z,975
2017-05-06T10:15:55.452Z,1030
2017-05-06T10:16:35.945Z,1045
2017-05-06T10:19:14.140Z,1045
2017-05-06T10:19:54.641Z,1125
2017-05-06T10:20:35.110Z,1105
2017-05-06T10:21:15.602Z,1150
2017-05-06T10:21:56.099Z,1095
2017-05-06T10:22:36.615Z,1065
2017-05-06T10:23:17.090Z,1070
2017-05-06T10:23:57.528Z,1120
2017-05-06T10:24:38.804Z,1065
2017-05-06T10:25:19.306Z,965
2017-05-06T10:25:59.759Z,975
2017-05-06T10:26:40.216Z,985
2017-05-06T10:27:20.671Z,955
2017-05-06T10:28:01.144Z,925
2017-05-06T10:28:41.607Z,1000
2017-05-06T10:29:22.050Z,1055
2017-05-06T10:30:02.556Z,965
2017-05-06T10:30:43.094Z,1010
2017-05-06T10:31:23.557Z,1070
2017-05-06T10:32:04.018Z,1485
2017-05-06T10:32:44.456Z,1940
2017-05-06T10:33:24.933Z,2335
2017-05-06T10:34:05.428Z,2580
2017-05-06T10:34:45.915Z,2140
2017-05-06T10:35:26.408Z,2075
2017-05-06T10:36:06.855Z,1205
2017-05-06T10:36:47.337Z,1715
2017-05-06T10:37:27.757Z,1145
2017-05-06T10:38:08.223Z,1045
2017-05-06T10:38:48.699Z,1075